Time;durP1;ratioP1;P1;durP2;ratioP2;P2;SDS_P1;SDS_P2;PMS_P1;PMS_P2;Temp;Humidity;BMP_temperature;BMP_pressure;BME280_temperature;BME280_humidity;BME280_pressure;Samples;Min_cycle;Max_cycle;Signal;HPM_P1;HPM_P2
2023/02/06 00:01:44;;;;;;;6.43;3.47;;;;;;;-4.28;60.51;95667.06;5064983;28;20107;-74
2023/02/06 00:04:10;;;;;;;7.20;3.23;;;;;;;-4.22;59.86;95663.09;5065223;28;20044;-74
2023/02/06 00:06:36;;;;;;;4.53;2.67;;;;;;;-4.19;59.56;95659.75;5065545;28;20451;-75
2023/02/06 00:09:02;;;;;;;6.67;3.50;;;;;;;-4.24;59.37;95665.31;5065867;28;20037;-76
2023/02/06 00:11:27;;;;;;;6.57;3.67;;;;;;;-4.33;59.74;95672.63;5065488;28;20028;-74
2023/02/06 00:13:52;;;;;;;6.93;3.93;;;;;;;-4.24;60.02;95668.00;5066564;28;20029;-75
2023/02/06 00:16:22;;;;;;;6.80;3.73;;;;;;;-4.26;60.18;95680.97;5048799;28;20024;-76
2023/02/06 00:18:48;;;;;;;4.80;3.30;;;;;;;-4.14;59.46;95681.03;5066610;28;20058;-75
2023/02/06 00:21:13;;;;;;;5.90;3.23;;;;;;;-4.10;59.30;95681.97;5064619;28;20060;-75
2023/02/06 00:23:39;;;;;;;6.37;3.50;;;;;;;-4.09;58.94;95682.75;5064883;28;20458;-74
2023/02/06 00:26:05;;;;;;;5.50;3.33;;;;;;;-4.14;59.28;95685.63;5065010;28;20056;-76
2023/02/06 00:28:30;;;;;;;9.23;3.70;;;;;;;-4.09;58.77;95688.91;5066436;28;20021;-74
2023/02/06 00:30:56;;;;;;;4.00;3.00;;;;;;;-4.12;58.80;95692.28;5065203;28;20078;-76
2023/02/06 00:33:21;;;;;;;4.80;3.37;;;;;;;-4.12;58.88;95696.84;5048112;28;20028;-76
2023/02/06 00:35:47;;;;;;;5.10;3.17;;;;;;;-4.17;58.70;95703.19;5066482;28;20411;-74
2023/02/06 00:38:12;;;;;;;4.90;3.40;;;;;;;-4.26;58.53;95707.81;5065942;28;20094;-74
2023/02/06 00:40:37;;;;;;;4.13;2.63;;;;;;;-4.32;58.61;95699.13;5066112;28;20404;-74
2023/02/06 00:43:03;;;;;;;5.30;3.07;;;;;;;-4.37;59.12;95707.38;5064749;28;20103;-74
2023/02/06 00:45:28;;;;;;;3.13;2.33;;;;;;;-4.40;59.36;95709.94;5064342;28;20024;-76
2023/02/06 00:47:54;;;;;;;4.53;2.97;;;;;;;-4.41;59.46;95709.16;5048140;28;20043;-75
2023/02/06 00:50:19;;;;;;;4.03;2.63;;;;;;;-4.37;59.85;95703.91;5064514;28;20032;-74
2023/02/06 00:52:45;;;;;;;4.33;3.03;;;;;;;-4.34;59.38;95700.59;5066048;28;20080;-74
2023/02/06 00:55:10;;;;;;;5.40;3.57;;;;;;;-4.37;59.50;95706.59;5066854;28;20032;-74
2023/02/06 00:57:36;;;;;;;5.97;3.27;;;;;;;-4.39;59.71;95708.81;5066509;28;20051;-74
2023/02/06 01:00:06;;;;;;;4.90;3.13;;;;;;;-4.37;59.48;95702.00;5064204;28;20037;-74
2023/02/06 01:02:33;;;;;;;5.33;2.93;;;;;;;-4.33;58.78;95712.91;5064167;28;20460;-75
2023/02/06 01:04:58;;;;;;;5.07;2.93;;;;;;;-4.24;58.49;95710.16;5064281;28;20032;-75
2023/02/06 01:07:24;;;;;;;5.30;3.50;;;;;;;-4.24;58.43;95716.34;5065948;28;20028;-77
2023/02/06 01:09:49;;;;;;;5.30;3.47;;;;;;;-4.24;57.66;95718.22;5065879;28;20074;-76
2023/02/06 01:12:15;;;;;;;5.17;2.90;;;;;;;-4.29;57.76;95716.53;5065404;28;20025;-75
2023/02/06 01:14:40;;;;;;;8.27;3.43;;;;;;;-4.36;57.32;95713.53;5065461;28;20103;-74
2023/02/06 01:17:05;;;;;;;5.03;2.77;;;;;;;-4.39;57.24;95714.97;5065228;28;20026;-74
2023/02/06 01:19:31;;;;;;;3.90;2.50;;;;;;;-4.36;57.77;95717.03;5064138;28;20331;-75
2023/02/06 01:21:56;;;;;;;5.13;3.07;;;;;;;-4.37;57.51;95723.47;5066646;28;20048;-76
2023/02/06 01:24:22;;;;;;;6.10;3.23;;;;;;;-4.43;57.38;95714.03;5068785;28;20029;-75
2023/02/06 01:26:47;;;;;;;3.67;2.43;;;;;;;-4.39;57.47;95725.72;5064689;28;20024;-75
2023/02/06 01:29:13;;;;;;;5.00;3.30;;;;;;;-4.36;57.21;95718.91;5065554;28;20032;-75
2023/02/06 01:31:38;;;;;;;3.57;2.63;;;;;;;-4.38;57.08;95719.22;5063989;28;20582;-75
2023/02/06 01:34:06;;;;;;;5.07;3.30;;;;;;;-4.33;57.04;95718.25;5064835;28;20024;-76
2023/02/06 01:36:31;;;;;;;3.80;2.53;;;;;;;-4.24;56.36;95727.09;5063680;28;20035;-76
2023/02/06 01:38:57;;;;;;;5.90;3.53;;;;;;;-4.17;56.12;95729.25;5064759;28;20021;-75
2023/02/06 01:41:23;;;;;;;7.90;3.10;;;;;;;-4.11;55.74;95730.66;5063644;28;20037;-74
2023/02/06 01:44:23;;;;;;;4.73;3.23;;;;;;;-4.03;55.54;95725.22;5064049;28;20058;-76
2023/02/06 01:46:54;;;;;;;4.33;2.77;;;;;;;-3.94;55.10;95732.47;5063506;28;20112;-75
2023/02/06 01:49:26;;;;;;;4.73;2.63;;;;;;;-3.84;54.79;95729.38;5063471;28;20032;-74
2023/02/06 01:51:59;;;;;;;3.97;2.57;;;;;;;-3.81;54.41;95728.75;5065735;28;20491;-75
2023/02/06 01:54:25;;;;;;;6.93;3.35;;;;;;;-3.69;54.16;95734.19;5063924;28;20116;-74
2023/02/06 01:56:53;;;;;;;5.07;2.87;;;;;;;-3.65;54.17;95729.75;5065064;28;20050;-74
2023/02/06 01:59:19;;;;;;;3.77;2.67;;;;;;;-3.54;53.80;95736.31;5063219;28;20028;-74
2023/02/06 02:01:45;;;;;;;5.97;3.43;;;;;;;-3.47;53.54;95735.78;5046851;28;20094;-74
2023/02/06 02:04:16;;;;;;;5.77;3.20;;;;;;;-3.45;53.39;95733.56;5063369;28;20028;-74
2023/02/06 02:06:41;;;;;;;4.77;2.93;;;;;;;-3.35;53.07;95735.06;5063285;28;20036;-75
2023/02/06 02:09:06;;;;;;;4.93;2.80;;;;;;;-3.27;52.76;95734.22;5046295;28;20047;-75
2023/02/06 02:11:40;;;;;;;5.50;3.23;;;;;;;-3.25;52.06;95729.31;5063186;28;20115;-75
2023/02/06 02:14:06;;;;;;;;;;;;;;;-3.18;51.46;95729.56;5064291;28;20066;-76
2023/02/06 02:16:38;;;;;;;4.23;2.33;;;;;;;-3.19;51.57;95732.59;5063485;28;19916;-74
2023/02/06 02:19:50;;;;;;;3.53;2.87;;;;;;;-3.23;51.43;95730.53;5065091;28;20074;-74
2023/02/06 02:22:21;;;;;;;5.63;2.97;;;;;;;-3.18;51.53;95736.84;5064196;28;20151;-75
2023/02/06 02:24:56;;;;;;;4.17;2.47;;;;;;;-3.21;51.85;95733.69;5063789;28;20028;-74
2023/02/06 02:27:25;;;;;;;4.23;2.70;;;;;;;-3.17;51.35;95733.81;5063466;28;20032;-75
2023/02/06 02:30:15;;;;;;;6.33;2.87;;;;;;;-3.21;51.39;95743.69;5064627;28;20021;-74
2023/02/06 02:32:40;;;;;;;4.33;3.00;;;;;;;-3.21;51.32;95747.16;5063057;28;20089;-74
2023/02/06 02:35:30;;;;;;;3.77;2.60;;;;;;;-3.23;51.00;95748.56;5062857;28;20107;-75
2023/02/06 02:38:26;;;;;;;4.47;2.57;;;;;;;-3.33;51.46;95755.13;5064300;28;20036;-74
2023/02/06 02:41:00;;;;;;;5.97;2.50;;;;;;;-3.33;51.42;95760.50;5063103;28;20534;-74
2023/02/06 02:43:32;;;;;;;6.27;2.63;;;;;;;-3.28;51.30;95751.47;5062940;28;20529;-76
2023/02/06 02:46:07;;;;;;;4.63;3.40;;;;;;;-3.17;50.67;95749.16;5063383;28;20044;-75
2023/02/06 02:48:40;;;;;;;5.70;2.97;;;;;;;-3.19;51.27;95748.72;5065153;28;20033;-76
2023/02/06 02:51:06;;;;;;;7.45;3.55;;;;;;;-3.19;50.62;95760.25;5063791;28;20036;-75
2023/02/06 02:53:32;;;;;;;3.90;2.90;;;;;;;-3.19;50.67;95757.56;5046336;28;20040;-75
2023/02/06 02:55:58;;;;;;;6.00;3.60;;;;;;;-3.18;50.92;95755.66;5064180;28;20116;-73
2023/02/06 02:58:27;;;;;;;6.68;3.78;;;;;;;-3.16;50.84;95758.81;5064202;28;20024;-74
2023/02/06 03:01:02;;;;;;;5.27;3.77;;;;;;;-3.16;50.93;95762.28;5062843;28;20035;-75
2023/02/06 03:03:29;;;;;;;6.80;3.90;;;;;;;-3.16;50.79;95773.03;5062573;28;20025;-75
2023/02/06 03:06:43;;;;;;;6.37;3.60;;;;;;;-3.23;50.70;95764.72;5063367;28;20081;-74
2023/02/06 03:09:17;;;;;;;5.40;3.10;;;;;;;-3.28;51.00;95775.66;5062599;28;20379;-74
2023/02/06 03:11:53;;;;;;;5.33;3.67;;;;;;;-3.28;51.32;95775.66;5062312;28;20060;-74
2023/02/06 03:14:33;;;;;;;5.60;3.57;;;;;;;-3.29;51.23;95777.56;5062421;28;20465;-74
2023/02/06 03:17:03;;;;;;;7.73;4.53;;;;;;;-3.22;50.80;95775.13;5064243;28;20032;-75
2023/02/06 03:19:33;;;;;;;5.73;3.73;;;;;;;-3.26;51.10;95776.94;5062779;28;20028;-75
2023/02/06 03:21:59;;;;;;;7.23;3.83;;;;;;;-3.19;50.85;95772.91;5062338;28;20479;-74
2023/02/06 03:24:27;;;;;;;6.53;3.33;;;;;;;-3.23;50.69;95776.25;5062417;28;20474;-74
2023/02/06 03:26:56;;;;;;;5.72;3.42;;;;;;;-3.24;51.24;95773.91;5063738;28;20036;-76
2023/02/06 03:29:23;;;;;;;6.97;3.70;;;;;;;-3.28;50.73;95772.97;5062009;28;20024;-74
2023/02/06 03:31:55;;;;;;;6.43;3.35;;;;;;;-3.26;51.06;95776.94;5045933;28;20033;-75
2023/02/06 03:34:57;;;;;;;5.22;3.45;;;;;;;-3.28;50.85;95783.72;5062111;28;20036;-74
2023/02/06 03:37:23;;;;;;;5.85;3.50;;;;;;;-3.29;51.02;95782.16;5065654;28;20091;-75
2023/02/06 03:39:49;;;;;;;4.50;3.23;;;;;;;-3.28;50.84;95786.41;5067903;28;20564;-74
2023/02/06 03:42:15;;;;;;;5.70;3.53;;;;;;;-3.22;50.56;95788.59;5067357;28;20112;-75
2023/02/06 03:44:44;;;;;;;5.07;3.40;;;;;;;-3.28;50.51;95787.19;5068578;28;20090;-74
2023/02/06 03:47:10;;;;;;;5.63;3.67;;;;;;;-3.34;50.59;95777.75;5070658;28;20043;-74
2023/02/06 03:49:38;;;;;;;5.03;3.30;;;;;;;-3.42;50.00;95778.63;5068391;28;20070;-75
2023/02/06 03:52:10;;;;;;;4.70;3.40;;;;;;;-3.54;51.00;95773.94;5051269;28;20028;-74
2023/02/06 03:54:38;;;;;;;5.93;3.70;;;;;;;-3.70;51.25;95770.25;5067899;28;20120;-74
2023/02/06 03:57:05;;;;;;;6.60;3.47;;;;;;;-3.72;51.20;95780.53;5071261;28;20032;-73
2023/02/06 03:59:31;;;;;;;6.37;3.63;;;;;;;-3.71;51.91;95774.06;5088790;28;20044;-75
2023/02/06 04:01:58;;;;;;;5.93;3.30;;;;;;;-3.67;51.42;95784.94;5069654;28;20032;-77
2023/02/06 04:04:30;;;;;;;6.17;3.60;;;;;;;-3.71;51.83;95784.00;5067493;28;20040;-76
2023/02/06 04:06:58;;;;;;;4.97;3.17;;;;;;;-3.71;51.75;95784.81;5067402;28;20036;-74
2023/02/06 04:09:25;;;;;;;5.93;3.07;;;;;;;-3.79;52.02;95777.56;5084754;28;20035;-76
2023/02/06 04:11:51;;;;;;;5.77;3.87;;;;;;;-3.69;52.28;95784.47;5049904;28;20130;-77
2023/02/06 04:14:16;;;;;;;5.97;3.87;;;;;;;-3.69;51.93;95781.78;5066885;28;20025;-74
2023/02/06 04:16:42;;;;;;;7.80;4.30;;;;;;;-3.71;52.42;95781.34;5065413;28;20055;-75
2023/02/06 04:19:07;;;;;;;7.30;4.87;;;;;;;-3.68;52.12;95786.03;5065928;28;20036;-76
2023/02/06 04:21:32;;;;;;;9.93;4.33;;;;;;;-3.72;52.50;95785.91;5066607;28;20408;-77
2023/02/06 04:23:58;;;;;;;5.80;3.87;;;;;;;-3.72;52.40;95788.59;5067004;28;20107;-74
2023/02/06 04:26:23;;;;;;;5.70;3.90;;;;;;;-3.62;52.15;95796.28;5066729;28;20423;-76
2023/02/06 04:28:49;;;;;;;8.53;5.17;;;;;;;-3.62;51.79;95796.28;5066216;28;20032;-75
2023/02/06 04:31:14;;;;;;;8.13;4.07;;;;;;;-3.64;52.16;95792.34;5064632;28;20101;-75
2023/02/06 04:33:39;;;;;;;8.03;4.40;;;;;;;-3.65;51.68;95801.53;5064971;28;20063;-75
2023/02/06 04:36:06;;;;;;;6.17;4.23;;;;;;;-3.67;51.91;95795.66;5064700;28;20388;-76
2023/02/06 04:38:31;;;;;;;5.60;4.00;;;;;;;-3.66;52.20;95791.91;5066250;28;20093;-74
2023/02/06 04:41:04;;;;;;;7.53;4.73;;;;;;;-3.70;52.27;95794.44;5065442;28;20414;-76
2023/02/06 04:43:30;;;;;;;11.10;4.90;;;;;;;-3.69;52.38;95793.31;5049502;28;20033;-75
2023/02/06 04:45:55;;;;;;;9.40;5.27;;;;;;;-3.64;52.40;95797.72;5064724;28;20020;-76
2023/02/06 04:48:21;;;;;;;8.73;5.30;;;;;;;-3.63;52.21;95802.78;5064081;28;20031;-75
2023/02/06 04:50:48;;;;;;;12.70;6.87;;;;;;;-3.68;52.34;95797.56;5048165;28;20495;-74
2023/02/06 04:53:13;;;;;;;10.47;5.67;;;;;;;-3.72;52.02;95804.72;5066031;28;20028;-76
2023/02/06 04:55:39;;;;;;;12.60;6.23;;;;;;;-3.78;52.32;95800.66;5063568;28;20849;-75
2023/02/06 04:58:04;;;;;;;10.20;6.03;;;;;;;-3.79;51.94;95804.44;5062764;28;20074;-75
2023/02/06 05:00:30;;;;;;;11.83;6.50;;;;;;;-3.84;52.15;95805.41;5066177;28;20430;-76
2023/02/06 05:02:55;;;;;;;7.77;5.13;;;;;;;-3.86;51.69;95814.91;5064623;28;20169;-75
2023/02/06 05:05:20;;;;;;;8.33;5.10;;;;;;;-4.09;51.63;95807.09;5065954;28;20111;-75
2023/02/06 05:07:46;;;;;;;8.40;5.33;;;;;;;-4.18;51.72;95806.34;5064968;28;20103;-74
2023/02/06 05:10:11;;;;;;;8.30;5.60;;;;;;;-4.27;52.01;95819.00;5065588;28;20449;-74
2023/02/06 05:12:37;;;;;;;6.03;4.60;;;;;;;-4.34;51.37;95824.88;5064113;28;20165;-76
2023/02/06 05:15:03;;;;;;;7.77;4.30;;;;;;;-4.41;51.33;95827.25;5064685;28;20061;-76
2023/02/06 05:17:28;;;;;;;8.27;4.53;;;;;;;-4.47;51.14;95827.72;5065584;28;20029;-75
2023/02/06 05:19:54;;;;;;;9.67;4.53;;;;;;;-4.58;51.42;95835.34;5064596;28;20034;-76
2023/02/06 05:22:19;;;;;;;8.50;4.57;;;;;;;-4.55;51.60;95834.69;5063754;28;20413;-76
2023/02/06 05:24:44;;;;;;;8.80;5.07;;;;;;;-4.56;51.10;95836.59;5065908;28;20024;-75
2023/02/06 05:27:10;;;;;;;8.67;5.23;;;;;;;-4.59;51.37;95837.25;5064099;28;20020;-75
2023/02/06 05:29:35;;;;;;;10.83;6.47;;;;;;;-4.59;51.14;95842.59;5063997;28;20716;-74
2023/02/06 05:32:01;;;;;;;10.70;6.37;;;;;;;-4.59;51.20;95845.28;5065308;28;20329;-76
2023/02/06 05:34:26;;;;;;;10.53;6.03;;;;;;;-4.62;50.95;95845.91;5064796;28;20036;-75
2023/02/06 05:36:51;;;;;;;11.93;6.67;;;;;;;-4.69;51.40;95850.19;5047491;28;20033;-75
2023/02/06 05:39:18;;;;;;;11.97;6.67;;;;;;;-4.72;51.58;95859.66;5066008;28;20032;-75
2023/02/06 05:41:43;;;;;;;11.03;5.90;;;;;;;-4.68;51.21;95851.75;5065643;28;20032;-77
2023/02/06 05:44:09;;;;;;;9.27;5.83;;;;;;;-4.69;51.11;95859.03;5063788;28;20020;-75
2023/02/06 05:46:36;;;;;;;10.70;6.83;;;;;;;-4.74;51.32;95859.19;5063127;28;20496;-76
2023/02/06 05:49:02;;;;;;;23.70;16.00;;;;;;;-4.81;51.98;95856.19;5063563;28;20020;-74
2023/02/06 05:51:27;;;;;;;11.33;9.20;;;;;;;-4.83;52.25;95856.47;5063492;28;20028;-74
2023/02/06 05:53:53;;;;;;;12.33;7.40;;;;;;;-4.75;52.39;95856.81;5063850;28;20043;-75
2023/02/06 05:56:18;;;;;;;10.80;6.37;;;;;;;-4.72;52.05;95866.91;5063423;28;20104;-74
2023/02/06 05:58:43;;;;;;;8.93;5.93;;;;;;;-4.69;52.46;95871.66;5063629;28;20064;-76
2023/02/06 06:01:10;;;;;;;13.63;7.13;;;;;;;-4.61;52.22;95876.22;5064170;28;20703;-75
2023/02/06 06:03:37;;;;;;;12.10;7.80;;;;;;;-4.56;51.59;95868.78;5064857;28;20028;-74
2023/02/06 06:06:03;;;;;;;14.47;8.13;;;;;;;-4.49;51.04;95867.53;5063351;28;20116;-74
2023/02/06 06:08:28;;;;;;;17.00;8.30;;;;;;;-4.52;51.26;95868.16;5063191;28;20154;-75
2023/02/06 06:10:54;;;;;;;14.83;8.43;;;;;;;-4.56;50.95;95871.47;5065012;28;20060;-75
2023/02/06 06:13:19;;;;;;;32.13;18.30;;;;;;;-4.51;51.05;95870.53;5062678;28;20024;-76
2023/02/06 06:15:44;;;;;;;17.07;11.17;;;;;;;-4.52;50.88;95871.63;5063504;28;20029;-74
2023/02/06 06:18:10;;;;;;;20.23;11.30;;;;;;;-4.49;51.21;95878.25;5062952;28;20017;-76
2023/02/06 06:20:36;;;;;;;20.90;11.33;;;;;;;-4.45;51.22;95876.53;5065116;28;20449;-80
2023/02/06 06:23:01;;;;;;;20.63;11.37;;;;;;;-4.36;50.80;95886.16;5064229;28;20025;-79
2023/02/06 06:25:26;;;;;;;22.00;9.37;;;;;;;-4.26;50.23;95890.38;5063852;28;20390;-80
2023/02/06 06:27:52;;;;;;;17.43;10.23;;;;;;;-4.25;50.25;95873.16;5064980;28;20524;-80
2023/02/06 06:30:18;;;;;;;19.47;9.47;;;;;;;-4.21;50.55;95873.31;5046676;28;20032;-80
2023/02/06 06:32:43;;;;;;;15.83;8.77;;;;;;;-4.13;49.96;95872.50;5070078;28;20032;-79
2023/02/06 06:35:09;;;;;;;13.90;8.97;;;;;;;-4.06;50.03;95872.81;5068094;28;20036;-79
2023/02/06 06:37:34;;;;;;;11.00;6.93;;;;;;;-3.97;49.26;95875.47;5066304;28;20388;-81
2023/02/06 06:39:59;;;;;;;7.13;5.40;;;;;;;-3.90;49.61;95873.88;5064466;28;20081;-79
2023/02/06 06:42:25;;;;;;;10.47;6.50;;;;;;;-3.85;49.26;95881.75;5065155;28;20065;-81
2023/02/06 06:44:50;;;;;;;10.93;7.23;;;;;;;-3.72;49.33;95890.72;5065285;28;20479;-80
2023/02/06 06:47:16;;;;;;;11.77;7.53;;;;;;;-3.62;49.06;95879.59;5063528;28;20377;-79
2023/02/06 06:49:41;;;;;;;11.63;6.67;;;;;;;-3.53;48.69;95888.41;5064027;28;20111;-76
2023/02/06 06:52:06;;;;;;;9.93;6.37;;;;;;;-3.42;48.65;95896.13;5064957;28;20024;-80
2023/02/06 06:54:32;;;;;;;10.00;6.40;;;;;;;-3.32;48.06;95895.78;5065448;28;20084;-80
2023/02/06 06:56:57;;;;;;;12.77;7.73;;;;;;;-3.24;48.62;95900.31;5063673;28;20380;-80
2023/02/06 06:59:22;;;;;;;16.97;8.80;;;;;;;-3.10;48.16;95902.75;5065549;28;20036;-81
2023/02/06 07:01:51;;;;;;;15.93;9.33;;;;;;;-3.08;48.09;95895.16;5065173;28;20537;-80
2023/02/06 07:04:17;;;;;;;15.47;9.17;;;;;;;-2.94;48.18;95907.22;5063186;28;20113;-82
2023/02/06 07:06:43;;;;;;;15.20;8.95;;;;;;;-2.78;47.81;95903.97;5064681;28;20028;-80
2023/02/06 07:09:08;;;;;;;15.38;8.85;;;;;;;-2.65;47.42;95916.38;5063806;28;20025;-80
2023/02/06 07:11:33;;;;;;;15.95;8.65;;;;;;;-2.55;46.75;95913.31;5065477;28;20057;-80
2023/02/06 07:13:59;;;;;;;15.40;8.23;;;;;;;-2.46;46.31;95911.34;5068815;28;20082;-80
2023/02/06 07:16:24;;;;;;;19.45;9.65;;;;;;;-2.32;45.75;95915.66;5068881;28;20032;-80
2023/02/06 07:18:50;;;;;;;11.23;7.88;;;;;;;-2.34;45.65;95924.06;5067103;28;20021;-80
2023/02/06 07:21:18;;;;;;;12.60;7.57;;;;;;;-2.35;45.91;95940.53;5068021;28;20495;-81
2023/02/06 07:23:44;;;;;;;14.55;7.85;;;;;;;-2.38;46.06;95933.13;5068678;28;20447;-80
2023/02/06 07:26:09;;;;;;;13.75;7.72;;;;;;;-2.44;46.16;95914.47;5066743;28;20028;-80
2023/02/06 07:28:35;;;;;;;12.35;7.32;;;;;;;-2.25;45.89;95932.06;5067109;28;20031;-81
2023/02/06 07:31:01;;;;;;;14.35;8.32;;;;;;;-2.15;45.96;95934.34;5066653;28;20033;-80
2023/02/06 07:33:26;;;;;;;16.80;8.20;;;;;;;-2.04;45.62;95935.53;5075052;28;20603;-82
2023/02/06 07:35:52;;;;;;;12.05;6.97;;;;;;;-1.88;45.78;95935.69;5069417;28;20104;-80
2023/02/06 07:38:17;;;;;;;20.33;9.93;;;;;;;-1.73;45.45;95932.34;5067268;28;20060;-79
2023/02/06 07:40:43;;;;;;;21.15;11.27;;;;;;;-1.58;44.72;95935.53;5067870;28;20126;-80
2023/02/06 07:43:08;;;;;;;14.70;8.80;;;;;;;-1.45;44.17;95935.22;5066702;28;20465;-81
2023/02/06 07:45:33;;;;;;;14.48;9.00;;;;;;;-1.38;43.10;95938.16;5068425;28;20036;-81
2023/02/06 07:47:59;;;;;;;13.85;8.20;;;;;;;-1.37;42.83;95928.94;5066657;28;20116;-81
2023/02/06 07:50:24;;;;;;;13.35;7.50;;;;;;;-1.37;42.96;95941.66;5068204;28;20364;-80
2023/02/06 07:52:49;;;;;;;11.70;6.53;;;;;;;-1.31;42.11;95937.59;5066508;28;20039;-82
2023/02/06 07:55:15;;;;;;;16.92;7.50;;;;;;;-1.25;42.48;95933.56;5068367;28;20435;-80
2023/02/06 07:57:41;;;;;;;25.45;11.30;;;;;;;-1.22;41.72;95945.56;5067592;28;20031;-80
2023/02/06 08:00:08;;;;;;;12.95;6.22;;;;;;;-1.24;41.64;95940.53;5066765;28;20032;-80
2023/02/06 08:02:33;;;;;;;13.07;6.20;;;;;;;-1.21;42.15;95947.94;5067564;28;20049;-80
2023/02/06 08:04:58;;;;;;;8.63;5.88;;;;;;;-1.17;42.34;95942.66;5067657;28;20067;-79
2023/02/06 08:07:24;;;;;;;9.38;5.47;;;;;;;-0.94;41.40;95943.78;5066371;28;20467;-79
2023/02/06 08:09:49;;;;;;;7.90;4.90;;;;;;;-0.80;40.69;95943.47;5067439;28;20032;-80
2023/02/06 08:12:14;;;;;;;8.60;4.47;;;;;;;-0.73;40.62;95940.19;5066021;28;20108;-81
2023/02/06 08:14:41;;;;;;;13.70;6.53;;;;;;;-0.57;40.53;95943.75;5066027;28;20028;-81
2023/02/06 08:17:07;;;;;;;12.23;7.93;;;;;;;-0.51;40.39;95945.09;5068086;28;20027;-80
2023/02/06 08:19:32;;;;;;;11.73;7.13;;;;;;;-0.40;40.06;95943.50;5066029;28;20032;-79
2023/02/06 08:21:58;;;;;;;11.07;5.32;;;;;;;-0.30;39.94;95945.69;5066351;28;20087;-80
2023/02/06 08:24:23;;;;;;;16.67;6.72;;;;;;;-0.14;40.13;95950.41;5066960;28;20032;-81
2023/02/06 08:26:48;;;;;;;12.65;6.10;;;;;;;0.17;40.02;95941.59;5066421;28;20168;-80
2023/02/06 08:29:16;;;;;;;11.13;5.72;;;;;;;0.56;38.38;95941.84;5070955;28;20025;-80
2023/02/06 08:31:42;;;;;;;13.27;6.95;;;;;;;0.94;37.76;95942.03;5075007;28;20040;-82
2023/02/06 08:34:10;;;;;;;11.77;6.45;;;;;;;1.38;36.97;95938.38;5066404;28;20031;-81
2023/02/06 08:36:35;;;;;;;9.57;4.85;;;;;;;1.53;36.77;95941.06;5065711;28;20036;-79
2023/02/06 08:39:02;;;;;;;7.43;4.20;;;;;;;1.71;36.64;95946.06;5065684;28;20016;-80
2023/02/06 08:41:32;;;;;;;6.63;4.55;;;;;;;1.83;36.62;95948.66;5065985;28;20040;-80
2023/02/06 08:43:59;;;;;;;8.40;5.25;;;;;;;2.29;36.29;95956.94;5065533;28;20017;-81
2023/02/06 08:46:27;;;;;;;9.48;5.63;;;;;;;2.47;36.15;95949.94;5066925;28;20481;-80
2023/02/06 08:49:03;;;;;;;9.90;4.53;;;;;;;2.79;35.12;95953.19;5067203;28;20020;-80
2023/02/06 08:51:30;;;;;;;7.72;4.68;;;;;;;3.23;34.72;95960.91;5049383;28;20503;-80
2023/02/06 08:54:00;;;;;;;8.00;4.75;;;;;;;3.73;33.50;95957.00;5065506;28;20499;-80
2023/02/06 08:56:26;;;;;;;7.30;4.43;;;;;;;3.72;32.96;95962.78;5048070;28;20054;-80
2023/02/06 08:58:52;;;;;;;6.57;3.95;;;;;;;3.67;32.31;95963.91;5065367;28;20029;-80
2023/02/06 09:01:18;;;;;;;5.00;3.30;;;;;;;3.61;32.37;95961.84;5066850;28;20379;-80
2023/02/06 09:03:44;;;;;;;7.63;3.83;;;;;;;4.09;31.69;95964.84;5071828;28;20048;-78
2023/02/06 09:06:10;;;;;;;6.65;3.47;;;;;;;4.42;31.37;95964.84;5068568;28;20028;-81
2023/02/06 09:08:36;;;;;;;5.32;3.45;;;;;;;4.55;31.56;95957.22;5066523;28;20123;-81
2023/02/06 09:11:16;;;;;;;5.85;3.58;;;;;;;4.43;30.65;95962.91;5065664;28;20029;-80
2023/02/06 09:13:43;;;;;;;5.50;3.47;;;;;;;4.07;31.92;95956.25;5049233;28;20483;-80
2023/02/06 09:16:10;;;;;;;9.65;4.80;;;;;;;4.07;32.64;95962.50;5065907;28;20029;-81
2023/02/06 09:18:35;;;;;;;9.90;5.45;;;;;;;4.09;32.64;95968.34;5064420;28;20111;-79
2023/02/06 09:21:20;;;;;;;10.95;5.93;;;;;;;5.82;29.89;95961.38;5066531;28;20044;-80
2023/02/06 09:23:50;;;;;;;8.02;4.85;;;;;;;4.78;30.43;95967.94;5063948;28;20114;-80
2023/02/06 09:26:19;;;;;;;8.52;5.22;;;;;;;6.24;28.90;95965.50;5066473;28;20060;-79
2023/02/06 09:28:44;;;;;;;8.52;4.75;;;;;;;5.31;29.90;95967.66;5067969;28;20028;-82
2023/02/06 09:31:10;;;;;;;8.40;5.38;;;;;;;5.67;29.62;95973.34;5066243;28;20098;-80
2023/02/06 09:33:37;;;;;;;8.07;4.30;;;;;;;6.71;27.50;95975.44;5064634;28;20023;-80
2023/02/06 09:36:11;;;;;;;7.90;3.83;;;;;;;9.12;25.78;95977.34;5064132;28;20447;-78
2023/02/06 09:38:58;;;;;;;6.65;4.13;;;;;;;11.20;23.63;95974.00;5047868;28;20530;-80
2023/02/06 09:41:38;;;;;;;9.10;5.00;;;;;;;12.77;21.79;95967.28;5059544;28;20498;-80
2023/02/06 09:44:09;;;;;;;5.32;3.70;;;;;;;12.97;20.73;95967.28;5063906;28;20028;-79
2023/02/06 09:46:38;;;;;;;5.60;4.35;;;;;;;12.84;21.47;95962.81;5064519;28;20418;-79
2023/02/06 09:49:16;;;;;;;6.80;4.05;;;;;;;12.11;21.62;95961.91;5063478;28;20020;-80
2023/02/06 09:52:09;;;;;;;10.23;6.00;;;;;;;11.28;22.42;95959.72;5064513;28;20507;-79
2023/02/06 09:54:46;;;;;;;7.38;4.30;;;;;;;14.32;19.68;95954.13;5047417;28;20028;-80
2023/02/06 09:57:24;;;;;;;6.15;3.35;;;;;;;14.35;18.46;95948.53;5063764;28;20028;-80
2023/02/06 09:59:58;;;;;;;6.55;3.70;;;;;;;14.44;18.73;95939.56;5065898;28;20029;-81
2023/02/06 10:02:48;;;;;;;5.70;3.28;;;;;;;15.82;17.66;95941.38;5063943;28;20086;-79
2023/02/06 10:05:41;;;;;;;4.75;3.50;;;;;;;17.55;16.17;95943.00;5064493;28;20028;-80
2023/02/06 10:08:18;;;;;;;6.70;4.40;;;;;;;19.31;15.25;95930.19;5065891;28;20077;-79
2023/02/06 10:10:51;;;;;;;6.70;5.10;;;;;;;20.20;13.61;95933.44;5063850;28;20063;-79
2023/02/06 10:13:29;;;;;;;7.38;4.18;;;;;;;21.38;13.33;95944.00;5064939;28;20510;-80
2023/02/06 10:16:05;;;;;;;10.05;5.05;;;;;;;22.91;12.84;95934.34;5065670;28;20482;-79
2023/02/06 10:18:43;;;;;;;7.25;4.10;;;;;;;24.24;11.97;95936.63;5063864;28;20020;-81
2023/02/06 10:21:27;;;;;;;6.32;4.40;;;;;;;23.98;11.43;95925.53;5064786;28;20060;-81
2023/02/06 10:24:27;;;;;;;7.80;3.42;;;;;;;23.93;10.59;95928.28;5070472;28;20552;-79
2023/02/06 10:26:52;;;;;;;3.72;2.75;;;;;;;24.41;10.12;95916.28;5065321;28;20111;-80
2023/02/06 10:29:25;;;;;;;4.63;3.40;;;;;;;24.34;10.74;95906.28;5031972;28;20052;-79
2023/02/06 10:31:59;;;;;;;4.85;3.85;;;;;;;25.01;10.56;95905.72;5063721;28;20497;-79
2023/02/06 10:34:27;;;;;;;5.05;3.65;;;;;;;25.83;9.78;95911.88;5065669;28;20067;-79
2023/02/06 10:37:13;;;;;;;4.82;3.25;;;;;;;26.24;9.66;95902.00;5065392;28;20028;-79
2023/02/06 10:39:48;;;;;;;6.70;3.60;;;;;;;26.85;9.64;95906.63;5065516;28;20047;-78
2023/02/06 10:42:36;;;;;;;4.18;3.50;;;;;;;27.47;9.40;95904.13;5065704;28;20060;-80
2023/02/06 10:45:29;;;;;;;3.85;3.40;;;;;;;28.07;8.92;95897.69;5066140;28;20029;-79
2023/02/06 10:48:16;;;;;;;10.43;5.13;;;;;;;28.88;9.00;95892.03;5068344;28;20591;-80
2023/02/06 10:50:47;;;;;;;5.13;3.17;;;;;;;27.41;9.28;95897.75;5069149;28;20029;-79
2023/02/06 10:53:38;;;;;;;10.32;5.78;;;;;;;27.50;9.26;95900.25;5067732;28;20103;-79
2023/02/06 10:56:16;;;;;;;4.82;4.20;;;;;;;26.03;9.51;95895.94;5069756;28;20052;-80
2023/02/06 10:58:47;;;;;;;5.75;3.20;;;;;;;28.03;8.94;95898.72;5067157;28;20533;-79
2023/02/06 11:01:14;;;;;;;6.15;4.32;;;;;;;24.46;10.27;95890.25;5069518;28;20034;-80
2023/02/06 11:03:49;;;;;;;6.95;4.22;;;;;;;22.42;11.42;95889.25;5067970;28;20078;-80
2023/02/06 11:06:19;;;;;;;5.30;3.78;;;;;;;20.69;12.14;95893.00;5066945;28;20570;-80
2023/02/06 11:08:46;;;;;;;6.63;4.50;;;;;;;18.97;13.24;95895.16;5067840;28;20035;-80
2023/02/06 11:11:17;;;;;;;6.68;4.20;;;;;;;17.40;14.90;95890.78;5067583;28;20078;-80
2023/02/06 11:13:45;;;;;;;4.90;3.67;;;;;;;16.07;15.48;95891.41;5069322;28;20028;-81
2023/02/06 11:16:15;;;;;;;7.00;4.57;;;;;;;14.87;16.57;95885.78;5051632;28;20028;-79
2023/02/06 11:18:44;;;;;;;8.48;4.90;;;;;;;13.44;17.18;95881.41;5070874;28;20028;-81
2023/02/06 11:21:11;;;;;;;7.45;4.45;;;;;;;12.14;18.91;95889.41;5071199;28;20052;-80
2023/02/06 11:23:37;;;;;;;8.38;4.60;;;;;;;11.14;20.23;95893.91;5067501;28;20060;-80
2023/02/06 11:26:14;;;;;;;8.32;4.70;;;;;;;10.38;21.08;95890.66;5068891;28;20095;-80
2023/02/06 11:28:52;;;;;;;6.47;5.00;;;;;;;9.53;21.97;95892.34;5080468;28;20040;-77
2023/02/06 11:31:19;;;;;;;8.35;5.38;;;;;;;8.87;22.98;95890.53;5072207;28;20136;-80
2023/02/06 11:33:53;;;;;;;11.68;5.03;;;;;;;7.87;23.41;95885.53;5067807;28;20039;-80
2023/02/06 11:36:23;;;;;;;;;;;;;;;7.13;24.92;95887.22;5068861;28;20024;-80
2023/02/06 11:39:20;;;;;;;5.78;4.40;;;;;;;6.43;25.64;95886.00;5068392;28;20053;-80
2023/02/06 11:42:05;;;;;;;8.63;4.60;;;;;;;5.78;26.31;95878.69;5067664;28;20415;-81